Latest Coastal Weather Observations for Maria Island

IDT60701

Issued at 6:05 pm EDT Sunday 26 October 2014 (issued every 10 minutes, with the page automatically refreshed every 10 minutes)

About coastal observations | Map of coastal stations | Coastal observations for TAS | Marine services | Other Formats
Station Details ID: 092124 Name: MARIA ISLAND (POINT LESUEUR) Lat: -42.66 Lon: 148.02 Height: 28.0 m
Data from the previous 72 hours. | See also: Recent months at Maria Island
Date/Time
EDT
Temp

°C
Wind Pressure Rain
since 9am
mm
Weather Cloud Vis
km
Sea
Height
m
Swell
Dir
 
Speed
knots
Gust
knots
hPa Trend Height
m
Period
s
Dir
26/06:00pm 13.1 NNE 15 19 1010.6 - 0.6 - - - - - - -
26/05:30pm 13.2 NNE 14 18 1011.1 - 0.6 - - - - - - -
26/05:00pm 13.6 NNE 13 17 1011.4 - 0.6 - - - - - - -
26/04:30pm 13.6 ENE 6 9 1011.7 - 0.6 - - - - - - -
26/04:00pm 13.5 ENE 8 14 1012.1 - 0.6 - - - - - - -
26/03:30pm 13.1 ENE 5 7 1012.8 - 0.6 - - - - - - -
26/03:00pm 12.8 ENE 7 9 1012.7 - 0.6 - - - - - - -
26/02:30pm 12.7 ENE 7 10 1013.1 - 0.6 - - - - - - -
26/02:00pm 12.8 ENE 9 12 1013.5 - 0.6 - - - - - - -
26/01:30pm 12.6 ENE 10 13 1013.5 - 0.6 - - - - - - -
26/01:00pm 12.3 E 9 13 1013.8 - 0.6 - - - - - - -
26/12:30pm 12.0 E 8 11 1014.1 - 0.6 - - - - - - -
26/12:00pm 11.5 E 11 14 1014.2 - 0.6 - - - - - - -
26/11:30am 11.6 E 12 16 1014.3 - 0.6 - - - - - - -
26/11:00am 11.2 E 10 13 1014.6 - 0.6 - - - - - - -
26/10:30am 10.9 E 11 16 1014.6 - 0.4 - - - - - - -
26/10:00am 10.8 E 14 18 1014.7 - 0.4 - - - - - - -
26/09:30am 10.5 E 12 16 1014.9 - 0.4 - - - - - - -
26/09:00am 10.2 E 12 16 1015.0 - 5.2 Recent precip. - - - - - -
26/08:30am 10.2 E 13 18 1014.7 - 5.0 - - - - - - -
26/08:00am 10.2 E 14 19 1014.6 - 4.8 - - - - - - -
26/07:30am 10.1 E 12 16 1014.7 - 4.6 - - - - - - -
26/07:00am 10.4 E 11 15 1014.9 - 4.2 - - - - - - -
26/06:30am 10.3 E 9 12 1014.7 - 4.0 - - - - - - -
26/06:00am 10.1 SE 7 8 1014.7 - 3.2 Rain - - - - - -
26/05:30am 9.9 SE 8 11 1014.7 - 2.8 - - - - - - -
26/05:00am 9.9 ESE 8 10 1014.8 - 2.4 - - - - - - -
26/04:30am 9.9 SE 8 11 1014.9 - 1.6 - - - - - - -
26/04:00am 10.0 ESE 7 8 1015.0 - 1.4 - - - - - - -
26/03:30am 10.1 SSE 5 7 1015.3 - 0.6 - - - - - - -
26/03:00am 10.0 SSE 6 8 1015.3 - 0.4 - - - - - - -
26/02:30am 9.9 ESE 6 7 1015.8 - 0.4 - - - - - - -
26/02:00am 9.6 E 4 7 1016.0 - 0.4 - - - - - - -
26/01:30am 9.8 E 4 5 1016.9 - 0.2 - - - - - - -
26/01:00am 10.1 ESE 4 5 1017.5 - 0.2 - - - - - - -
26/12:30am 10.5 E 2 4 1017.9 - 0.0 - - - - - - -
26/12:00am 10.9 E 4 6 1017.4 - 0.0 - - - - - - -
 
Date/Time
EDT
Temp

°C
Wind Pressure Rain
since 9am
mm
Weather Cloud Vis
km
Sea
Height
m
Swell
Dir
 
Speed
knots
Gust
knots
hPa Trend Height
m
Period
s
Dir
25/11:30pm 11.1 E 6 9 1017.1 - 0.0 - - - - - - -
25/11:00pm 11.2 ESE 6 8 1017.4 - 0.0 - - - - - - -
25/10:30pm 11.5 SE 6 8 1018.0 - 0.0 - - - - - - -
25/10:00pm 11.5 ESE 8 11 1017.7 - 0.0 - - - - - - -
25/09:30pm 11.5 ESE 9 11 1017.8 - 0.0 - - - - - - -
25/09:00pm 11.6 ESE 8 12 1018.2 - 0.0 - - - - - - -
25/08:30pm 11.6 SE 8 11 1017.9 - 0.0 - - - - - - -
25/08:00pm 11.7 SE 11 15 1017.5 - 0.0 - - - - - - -
25/07:30pm 11.9 SE 11 16 1017.2 - 0.0 - - - - - - -
25/07:00pm 12.0 SE 10 16 1017.0 - 0.0 - - - - - - -
25/06:30pm 12.2 SE 12 16 1016.8 - 0.0 - - - - - - -
25/06:00pm 12.4 SE 12 15 1016.5 - 0.0 - - - - - - -
25/05:30pm 12.9 SE 13 17 1016.5 - 0.0 - - - - - - -
25/05:00pm 13.1 SE 12 15 1016.2 - 0.0 - - - - - - -
25/04:30pm 13.7 SE 12 16 1016.1 - 0.0 - - - - - - -
25/04:00pm 13.6 SE 13 18 1016.1 - 0.0 - - - - - - -
25/03:30pm 13.7 SE 13 16 1016.0 - 0.0 - - - - - - -
25/03:00pm 13.9 SSE 15 20 1015.8 - 0.0 - - - - - - -
25/02:30pm 14.5 SE 13 18 1015.8 - 0.0 - - - - - - -
25/02:00pm 15.2 SE 13 17 1015.8 - 0.0 - - - - - - -
25/01:30pm 16.0 E 11 16 1015.2 - 0.0 - - - - - - -
25/01:00pm 15.9 SE 8 12 1015.5 - 0.0 - - - - - - -
25/12:30pm 16.5 S 12 14 1015.4 - 0.0 - - - - - - -
25/12:00pm 16.0 SSW 14 16 1015.3 - 0.0 - - - - - - -
25/11:30am 16.1 S 11 13 1015.3 - 0.0 - - - - - - -
25/11:00am 15.5 S 14 16 1015.4 - 0.0 - - - - - - -
25/10:30am 14.4 SSW 16 18 1015.1 - 0.0 - - - - - - -
25/10:00am 15.1 SSW 18 21 1015.0 - 0.0 - - - - - - -
25/09:30am 14.8 S 13 15 1014.7 - 0.0 - - - - - - -
25/09:00am 13.6 S 15 17 1014.5 - 0.0 - - - - - - -
25/08:30am 13.8 SSW 19 22 1014.0 - 0.0 - - - - - - -
25/08:00am 13.6 SSW 22 26 1013.5 - 0.0 - - - - - - -
25/07:30am 13.8 SSW 19 21 1012.9 - 0.0 - - - - - - -
25/07:00am 13.6 SSW 21 24 1012.3 - 0.0 - - - - - - -
25/06:30am 13.8 SSW 16 18 1012.2 - 0.0 - - - - - - -
25/06:00am 13.8 S 8 10 1011.8 - 0.0 - - - - - - -
25/05:30am 13.7 S 8 10 1011.5 - 0.0 - - - - - - -
25/05:00am 13.7 SSW 12 15 1010.7 - 0.0 - - - - - - -
25/04:30am 13.3 S 6 8 1010.4 - 0.0 - - - - - - -
25/04:00am 13.1 E 3 5 1009.5 - 0.0 - - - - - - -
25/03:30am 13.4 E 4 6 1009.4 - 0.0 - - - - - - -
25/03:00am 14.5 SE 3 5 1009.1 - 0.0 - - - - - - -
25/02:30am 14.3 ESE 4 7 1008.7 - 0.0 - - - - - - -
25/02:00am 14.4 S 11 14 1008.3 - 0.0 - - - - - - -
25/01:30am 14.2 SSW 10 12 1008.5 - 0.0 - - - - - - -
25/01:00am 14.9 SW 4 6 1008.2 - 0.0 - - - - - - -
25/12:30am 15.3 NE 1 3 1007.9 - 0.0 - - - - - - -
25/12:00am 15.0 N 4 5 1007.9 - 0.0 - - - - - - -
 
Date/Time
EDT
Temp

°C
Wind Pressure Rain
since 9am
mm
Weather Cloud Vis
km
Sea
Height
m
Swell
Dir
 
Speed
knots
Gust
knots
hPa Trend Height
m
Period
s
Dir
24/11:30pm 14.6 N 10 12 1007.7 - 0.0 - - - - - - -
24/11:00pm 14.6 N 10 12 1007.9 - 0.0 - - - - - - -
24/10:30pm 14.8 N 11 13 1007.9 - 0.0 - - - - - - -
24/10:00pm 14.7 N 14 16 1008.1 - 0.0 - - - - - - -
24/09:30pm 14.4 N 12 13 1008.9 - 0.0 - - - - - - -
24/09:00pm 14.1 N 12 13 1008.7 - 0.0 - - - - - - -
24/08:30pm 14.6 N 17 22 1008.7 - 0.0 - - - - - - -
24/08:00pm 15.6 N 20 26 1007.5 - 0.0 - - - - - - -
24/07:30pm 15.6 NNE 20 25 1007.8 - 0.0 - - - - - - -
24/07:00pm 15.2 N 15 20 1009.3 - 0.0 - - - - - - -
24/06:30pm 15.6 N 19 25 1009.8 - 0.0 - - - - - - -
24/06:00pm 15.7 NNE 21 27 1009.1 - 0.0 - - - - - - -
24/05:30pm 15.5 NNE 19 23 1009.6 - 0.0 - - - - - - -
24/05:00pm 15.4 NNE 20 27 1009.8 - 0.0 - - - - - - -
24/04:30pm 15.4 NNE 19 26 1010.3 - 0.0 - - - - - - -
24/04:00pm 15.0 NNE 19 25 1010.8 - 0.0 - - - - - - -
24/03:30pm 14.8 NNE 20 27 1011.2 - 0.0 - - - - - - -
24/03:00pm 14.7 NNE 20 26 1012.0 - 0.0 - - - - - - -
24/02:30pm 14.6 NNE 20 26 1012.6 - 0.0 - - - - - - -
24/02:00pm 14.3 NNE 18 23 1013.4 - 0.0 - - - - - - -
24/01:30pm 14.0 N 19 24 1014.1 - 0.0 - - - - - - -
24/01:00pm 14.2 NNE 18 22 1014.8 - 0.0 - - - - - - -
24/12:30pm 14.2 NNE 18 23 1015.2 - 0.0 - - - - - - -
24/12:00pm 13.9 NNE 18 23 1015.8 - 0.0 - - - - - - -
24/11:30am 14.0 NNE 17 25 1016.3 - 0.0 - - - - - - -
24/11:00am 13.5 NNE 16 26 1017.0 - 0.0 - - - - - - -
24/10:58am 13.6 NNE 16 26 1017.0 - 0.0 - - - - - - -
24/10:30am 13.5 NNE 14 20 1017.5 - 0.0 - - - - - - -
24/10:00am 13.5 NNE 16 22 1018.0 - 0.0 - - - - - - -
24/09:33am 13.3 NNE 16 27 1018.2 - 0.0 - - - - - - -
24/09:30am 13.4 NNE 16 21 1018.5 - 0.0 - - - - - - -
24/09:00am 13.2 NNE 20 26 1019.2 - 0.0 - - - - - - -
24/08:30am 13.1 NNE 19 25 1019.5 - 0.0 - - - - - - -
24/08:00am 13.1 NNE 16 22 1020.0 - 0.0 - - - - - - -
24/07:30am 12.6 NNE 17 22 1020.1 - 0.0 - - - - - - -
24/07:00am 12.5 NNE 17 24 1020.3 - 0.0 - - - - - - -
24/06:30am 12.2 NNE 19 24 1020.6 - 0.0 - - - - - - -
24/06:00am 12.2 NNE 18 23 1020.7 - 0.0 - - - - - - -
24/05:30am 12.0 NNE 16 22 1021.0 - 0.0 - - - - - - -
24/05:00am 11.9 NNE 13 17 1021.2 - 0.0 - - - - - - -
24/04:30am 11.8 NNE 11 15 1021.6 - 0.0 - - - - - - -
24/04:00am 11.8 NNE 12 14 1022.3 - 0.0 - - - - - - -
24/03:30am 11.8 NNE 11 14 1022.4 - 0.0 - - - - - - -
24/03:00am 11.5 NNE 10 12 1022.9 - 0.0 - - - - - - -
24/02:30am 11.6 NNE 15 19 1023.2 - 0.0 - - - - - - -
24/02:00am 11.5 NNE 16 20 1023.4 - 0.0 - - - - - - -
24/01:30am 11.3 NNE 14 18 1023.8 - 0.0 - - - - - - -
24/01:00am 11.4 NNE 14 17 1024.1 - 0.0 - - - - - - -
24/12:30am 11.3 NNE 16 20 1024.5 - 0.0 - - - - - - -
24/12:00am 11.3 NNE 14 19 1025.0 - 0.0 - - - - - - -
 
Date/Time
EDT
Temp

°C
Wind Pressure Rain
since 9am
mm
Weather Cloud Vis
km
Sea
Height
m
Swell
Dir
 
Speed
knots
Gust
knots
hPa Trend Height
m
Period
s
Dir
23/11:30pm 11.2 NNE 13 18 1024.9 - 0.0 - - - - - - -
23/11:00pm 10.8 NNE 10 13 1025.2 - 0.0 - - - - - - -
23/10:30pm 10.3 NE 10 15 1025.4 - 0.0 - - - - - - -
23/10:00pm 8.9 NE 7 10 1026.0 - 0.0 - - - - - - -
23/09:30pm 9.3 NE 6 6 1026.2 - 0.0 - - - - - - -
23/09:00pm 10.6 ENE 8 10 1026.1 - 0.0 - - - - - - -
23/08:30pm 10.8 NE 6 9 1026.2 - 0.0 - - - - - - -
23/08:00pm 11.4 ENE 7 10 1026.0 - 0.0 - - - - - - -
23/07:30pm 11.4 ENE 7 9 1025.8 - 0.0 - - - - - - -
23/07:00pm 11.6 E 9 13 1025.6 - 0.0 - - - - - - -
23/06:30pm 11.9 E 8 11 1025.6 - 0.0 - - - - - - -

Other Formats:

Comma delimited format used in spreadsheet applications
http://www.bom.gov.au/fwo/IDT60701/IDT60701.95988.axf

JavaScript Object Notation format (JSON) in row-major order
http://www.bom.gov.au/fwo/IDT60701/IDT60701.95988.json